Time;durP1;ratioP1;P1;durP2;ratioP2;P2;SDS_P1;SDS_P2;PMS_P1;PMS_P2;Temp;Humidity;BMP_temperature;BMP_pressure;BME280_temperature;BME280_humidity;BME280_pressure;Samples;Min_cycle;Max_cycle;Signal;HPM_P1;HPM_P2
2022/10/02 00:00:35;;;;;;;6.65;1.25;;;;;;;14.94;73.59;100370.91;10492959;28;20061;-63
2022/10/02 00:05:44;;;;;;;8.93;1.88;;;;;;;14.82;74.01;100366.06;10488325;28;20048;-62
2022/10/02 00:10:50;;;;;;;8.35;1.25;;;;;;;14.78;74.08;100374.81;10492225;28;20531;-61
2022/10/02 00:15:53;;;;;;;8.25;1.42;;;;;;;14.73;74.41;100372.72;10493512;28;20048;-63
2022/10/02 00:21:05;;;;;;;12.55;1.75;;;;;;;14.60;75.16;100378.91;10490602;28;20036;-64
2022/10/02 00:26:25;;;;;;;15.45;1.75;;;;;;;14.60;75.56;100380.78;10490433;28;20052;-63
2022/10/02 00:31:51;;;;;;;14.50;2.08;;;;;;;14.63;75.91;100386.63;10489674;28;20048;-63
2022/10/02 00:37:07;;;;;;;18.35;2.95;;;;;;;14.76;76.01;100382.31;10492633;28;20097;-61
2022/10/02 00:42:40;;;;;;;10.73;1.45;;;;;;;14.80;76.36;100380.84;10493425;28;20064;-62
2022/10/02 00:47:49;;;;;;;12.88;2.08;;;;;;;14.83;76.53;100391.25;10498154;28;20097;-63
2022/10/02 00:53:03;;;;;;;15.38;1.50;;;;;;;14.80;77.07;100386.28;10497018;28;20069;-60
2022/10/02 00:58:39;;;;;;;13.48;1.52;;;;;;;14.86;76.75;100383.56;10499849;28;20182;-61
2022/10/02 01:03:46;;;;;;;14.55;1.55;;;;;;;14.90;76.92;100385.88;10498019;28;20068;-62
2022/10/02 01:08:47;;;;;;;11.00;1.20;;;;;;;14.93;76.88;100388.16;10498396;28;20041;-60
2022/10/02 01:13:50;;;;;;;6.80;1.20;;;;;;;15.01;76.65;100375.31;10497860;28;20256;-63
2022/10/02 01:18:51;;;;;;;13.00;1.67;;;;;;;15.00;76.96;100367.38;10497209;28;20546;-63
2022/10/02 01:24:01;;;;;;;12.10;1.23;;;;;;;15.05;76.70;100373.03;10501319;28;20049;-63
2022/10/02 01:29:03;;;;;;;15.80;1.33;;;;;;;15.14;76.50;100376.38;10490977;28;20059;-62
2022/10/02 01:34:05;;;;;;;20.15;3.05;;;;;;;15.15;76.37;100389.69;10496318;28;20064;-61
2022/10/02 01:39:07;;;;;;;9.48;1.25;;;;;;;15.09;76.55;100409.47;10480042;28;20079;-61
2022/10/02 01:44:09;;;;;;;13.43;1.48;;;;;;;14.96;76.90;100412.13;10499313;28;20068;-62
2022/10/02 01:49:38;;;;;;;11.02;1.13;;;;;;;15.04;76.35;100393.00;10498585;28;20044;-60
2022/10/02 01:54:45;;;;;;;13.43;2.08;;;;;;;15.10;76.16;100396.78;10494439;28;20127;-60
2022/10/02 02:00:03;;;;;;;13.75;1.48;;;;;;;15.03;76.30;100396.75;10479606;28;20117;-60
2022/10/02 02:05:16;;;;;;;10.77;1.70;;;;;;;15.03;76.29;100413.84;10471202;28;20045;-63
2022/10/02 02:10:25;;;;;;;15.57;2.63;;;;;;;15.00;76.06;100403.41;10496863;28;20186;-61
2022/10/02 02:15:53;;;;;;;12.57;1.42;;;;;;;15.02;76.18;100398.63;10494343;28;20071;-60
2022/10/02 02:21:00;;;;;;;8.23;1.00;;;;;;;15.03;76.10;100408.41;10486087;28;20040;-66
2022/10/02 02:26:07;;;;;;;14.03;1.13;;;;;;;15.09;76.20;100406.78;10494257;28;20231;-61
2022/10/02 02:31:11;;;;;;;;;;;;;;;15.00;76.69;100391.75;10495151;28;20345;-62
2022/10/02 02:36:18;;;;;;;15.82;1.10;;;;;;;15.02;76.50;100401.31;10494214;28;19931;-61
2022/10/02 02:41:25;;;;;;;9.63;1.73;;;;;;;15.05;76.62;100398.22;10492096;28;20049;-61
2022/10/02 02:46:33;;;;;;;13.23;1.30;;;;;;;15.12;76.69;100400.94;10491738;28;20079;-61
2022/10/02 02:51:41;;;;;;;15.20;2.33;;;;;;;15.19;76.29;100406.38;10492397;28;20083;-61
2022/10/02 02:56:45;;;;;;;15.43;1.48;;;;;;;15.18;76.47;100410.13;10490675;28;20494;-62
2022/10/02 03:01:47;;;;;;;8.85;0.88;;;;;;;15.24;76.41;100399.31;10492211;28;20063;-60
2022/10/02 03:06:54;;;;;;;8.45;1.70;;;;;;;15.21;76.61;100412.44;10489140;28;20135;-60
2022/10/02 03:12:13;;;;;;;10.52;0.90;;;;;;;15.15;76.79;100408.66;10491333;28;20133;-64
2022/10/02 03:17:34;;;;;;;8.68;1.00;;;;;;;15.19;76.78;100393.66;10490668;28;20052;-61
2022/10/02 03:22:49;;;;;;;5.25;0.80;;;;;;;15.25;76.44;100376.59;10491356;28;20071;-62
2022/10/02 03:28:13;;;;;;;11.25;1.10;;;;;;;15.25;76.51;100367.66;10492558;28;20131;-63
2022/10/02 03:33:16;;;;;;;9.60;1.38;;;;;;;15.25;76.41;100373.88;10491908;28;20506;-62
2022/10/02 03:38:20;;;;;;;12.25;1.50;;;;;;;15.22;76.61;100377.00;10493239;28;20082;-63
2022/10/02 03:43:23;;;;;;;12.00;1.45;;;;;;;15.15;76.72;100392.41;10492410;28;20075;-61
2022/10/02 03:48:24;;;;;;;12.75;1.13;;;;;;;15.19;76.61;100409.91;10493732;28;20067;-62
2022/10/02 03:53:30;;;;;;;11.00;1.20;;;;;;;15.18;76.50;100412.81;10490771;28;20111;-61
2022/10/02 03:58:32;;;;;;;9.15;0.80;;;;;;;15.25;76.57;100416.38;10492175;28;20045;-61
2022/10/02 04:03:38;;;;;;;11.65;1.00;;;;;;;15.26;76.03;100408.06;10491025;28;20067;-62
2022/10/02 04:08:49;;;;;;;5.68;0.85;;;;;;;15.25;76.19;100405.56;10472918;28;20040;-63
2022/10/02 04:14:19;;;;;;;17.73;2.10;;;;;;;15.18;76.45;100388.44;10494014;28;20041;-62
2022/10/02 04:19:46;;;;;;;11.98;2.28;;;;;;;15.29;76.20;100398.69;10502321;28;20060;-64
2022/10/02 04:24:52;;;;;;;14.35;2.13;;;;;;;15.28;76.13;100402.41;10483385;28;20498;-60
2022/10/02 04:30:13;;;;;;;7.28;1.02;;;;;;;15.27;76.32;100407.00;10485069;28;20421;-62
2022/10/02 04:35:32;;;;;;;12.20;0.80;;;;;;;15.30;76.19;100402.22;10494357;28;20103;-61
2022/10/02 04:40:50;;;;;;;11.35;0.80;;;;;;;15.38;75.84;100404.72;10495646;28;20140;-61
2022/10/02 04:46:00;;;;;;;9.63;1.05;;;;;;;15.38;75.88;100410.16;10495030;28;20123;-61
2022/10/02 04:51:26;;;;;;;8.05;0.95;;;;;;;15.40;75.87;100402.66;10496786;28;20062;-61
2022/10/02 04:57:05;;;;;;;11.43;0.90;;;;;;;15.45;75.89;100402.88;10496085;28;20073;-63
2022/10/02 05:02:27;;;;;;;11.57;1.45;;;;;;;15.55;75.72;100407.88;10493925;28;20037;-61
2022/10/02 05:08:07;;;;;;;10.38;2.25;;;;;;;15.51;75.94;100395.81;10496108;28;20041;-60
2022/10/02 05:13:36;;;;;;;11.27;1.35;;;;;;;15.58;75.81;100394.75;10450610;28;20067;-61
2022/10/02 05:18:56;;;;;;;12.93;1.30;;;;;;;15.46;76.13;100399.09;10495163;28;20071;-61
2022/10/02 05:24:38;;;;;;;11.98;1.95;;;;;;;15.46;76.18;100404.53;10478571;28;20071;-62
2022/10/02 05:30:04;;;;;;;10.07;1.50;;;;;;;15.47;75.98;100403.50;10542904;28;20043;-70
2022/10/02 05:35:33;;;;;;;19.40;1.67;;;;;;;15.46;76.22;100399.97;10525648;28;20025;-70
2022/10/02 05:41:06;;;;;;;12.43;1.98;;;;;;;15.50;76.06;100404.94;10542663;28;20041;-70
2022/10/02 05:46:24;;;;;;;11.27;1.92;;;;;;;15.51;76.00;100420.19;10507030;28;20040;-70
2022/10/02 05:51:39;;;;;;;13.65;2.30;;;;;;;15.49;76.25;100416.84;10543179;28;20028;-70
2022/10/02 05:56:50;;;;;;;17.42;4.03;;;;;;;15.52;76.01;100421.84;10539964;28;20068;-70
2022/10/02 06:01:56;;;;;;;12.23;2.13;;;;;;;15.45;76.33;100428.09;10544497;28;20032;-69
2022/10/02 06:07:14;;;;;;;13.95;2.70;;;;;;;15.28;76.84;100421.38;10610697;22;20042;-69
2022/10/02 06:12:29;;;;;;;18.67;2.88;;;;;;;15.34;76.66;100425.97;10659985;22;20054;-68
2022/10/02 06:17:44;;;;;;;12.88;3.00;;;;;;;15.35;76.78;100413.28;10483115;28;20147;-69
2022/10/02 06:22:53;;;;;;;14.07;2.67;;;;;;;15.29;76.98;100409.53;10498523;28;20058;-69
2022/10/02 06:28:01;;;;;;;8.70;2.05;;;;;;;15.26;76.95;100415.34;10489543;23;20072;-69
2022/10/02 06:33:22;;;;;;;25.75;4.78;;;;;;;15.32;76.97;100428.06;10460216;28;20041;-69
2022/10/02 06:38:57;;;;;;;13.65;3.28;;;;;;;15.27;77.30;100427.84;10493432;22;20045;-90
2022/10/02 06:44:31;;;;;;;17.85;3.60;;;;;;;15.31;77.30;100431.81;10434797;28;20038;-89
2022/10/02 06:50:02;;;;;;;11.57;3.55;;;;;;;15.35;77.24;100443.09;10440418;23;20049;-69
2022/10/02 06:55:30;;;;;;;16.40;2.78;;;;;;;15.34;77.36;100444.94;10457978;28;20044;-69
2022/10/02 07:00:44;;;;;;;12.82;3.90;;;;;;;15.36;77.52;100439.31;10458050;28;20025;-69
2022/10/02 07:06:07;;;;;;;15.15;3.63;;;;;;;15.34;77.46;100436.81;10455240;28;20037;-69
2022/10/02 07:11:20;;;;;;;12.13;3.35;;;;;;;15.29;77.97;100457.44;10456819;28;20049;-71
2022/10/02 07:16:40;;;;;;;16.45;3.50;;;;;;;15.25;78.14;100457.84;10470506;28;20071;-70
2022/10/02 07:21:59;;;;;;;16.85;3.92;;;;;;;15.32;78.04;100449.72;10495633;28;20045;-69
2022/10/02 07:27:18;;;;;;;16.58;2.95;;;;;;;15.32;78.27;100444.31;10448224;28;20037;-69
2022/10/02 07:32:41;;;;;;;14.23;3.60;;;;;;;15.36;78.42;100445.56;10463863;28;20052;-69
2022/10/02 07:38:14;;;;;;;15.30;2.50;;;;;;;15.31;78.67;100453.47;10478194;28;20048;-69
2022/10/02 07:43:23;;;;;;;13.32;2.97;;;;;;;15.36;78.93;100466.41;10473691;28;20045;-69
2022/10/02 07:48:39;;;;;;;7.95;2.20;;;;;;;15.37;78.87;100468.91;10484207;28;20048;-64
2022/10/02 07:53:50;;;;;;;7.55;2.10;;;;;;;15.38;78.93;100467.88;10468908;28;20045;-69
2022/10/02 07:58:58;;;;;;;5.22;1.80;;;;;;;15.34;79.11;100472.00;10492679;28;20112;-68
2022/10/02 08:04:04;;;;;;;13.05;2.33;;;;;;;15.39;78.92;100474.13;10482598;28;20285;-67
2022/10/02 08:09:23;;;;;;;7.22;1.92;;;;;;;15.44;78.55;100477.03;10487922;28;20029;-70
2022/10/02 08:14:40;;;;;;;5.18;1.55;;;;;;;15.47;78.46;100477.47;10492256;28;20051;-68
2022/10/02 08:19:48;;;;;;;7.85;2.13;;;;;;;15.53;78.41;100488.53;10486385;28;20048;-68
2022/10/02 08:24:56;;;;;;;9.52;1.90;;;;;;;15.57;78.38;100478.97;10476415;28;20371;-68
2022/10/02 08:30:02;;;;;;;6.85;1.90;;;;;;;15.61;78.27;100478.34;10490689;28;20048;-68
2022/10/02 08:35:11;;;;;;;8.33;2.23;;;;;;;15.70;78.23;100468.16;10473901;28;20093;-68
2022/10/02 08:40:34;;;;;;;4.03;1.65;;;;;;;15.69;78.22;100471.88;10490332;28;20033;-67
2022/10/02 08:46:01;;;;;;;7.82;2.15;;;;;;;15.67;78.46;100465.84;10490036;28;20040;-68
2022/10/02 08:51:20;;;;;;;2.43;1.40;;;;;;;15.80;78.06;100473.19;10470636;28;20045;-68
2022/10/02 08:56:47;;;;;;;8.30;1.40;;;;;;;15.81;78.11;100491.94;10489443;28;20041;-67
2022/10/02 09:02:40;;;;;;;6.97;1.20;;;;;;;15.84;78.32;100482.59;10484551;28;20044;-67
2022/10/02 09:08:06;;;;;;;3.88;1.10;;;;;;;15.88;77.88;100481.13;10458753;28;20049;-68
2022/10/02 09:13:32;;;;;;;2.97;1.33;;;;;;;15.88;78.09;100472.13;10489502;28;20083;-69
2022/10/02 09:18:50;;;;;;;3.95;1.23;;;;;;;15.86;78.10;100472.38;10492237;28;20562;-69
2022/10/02 09:24:19;;;;;;;8.45;1.17;;;;;;;15.80;78.20;100479.44;10489717;28;20045;-68
2022/10/02 09:29:54;;;;;;;8.57;3.15;;;;;;;15.91;78.05;100479.88;10485638;28;20053;-68
2022/10/02 09:35:07;;;;;;;3.22;1.38;;;;;;;15.90;78.15;100484.47;10487673;28;20040;-69
2022/10/02 09:41:03;;;;;;;2.45;0.88;;;;;;;15.96;78.16;100466.53;10459781;28;20071;-68
2022/10/02 09:46:45;;;;;;;2.78;0.90;;;;;;;16.01;77.94;100461.28;10427553;28;20056;-68
2022/10/02 09:52:09;;;;;;;3.25;1.00;;;;;;;16.00;78.00;100465.06;10455903;28;20029;-68
2022/10/02 09:57:50;;;;;;;2.75;1.00;;;;;;;16.05;78.00;100474.25;10494229;28;20036;-68
2022/10/02 10:03:21;;;;;;;6.75;1.48;;;;;;;16.13;77.94;100466.94;10472119;28;20439;-69
2022/10/02 10:08:53;;;;;;;2.17;1.13;;;;;;;16.18;78.14;100464.44;10426278;28;20071;-69
2022/10/02 10:14:28;;;;;;;3.70;1.08;;;;;;;16.30;77.77;100461.91;10483734;28;20059;-69
2022/10/02 10:19:54;;;;;;;4.07;1.02;;;;;;;16.37;77.81;100466.28;10467717;28;20104;-68
2022/10/02 10:25:27;;;;;;;3.72;0.90;;;;;;;16.49;77.42;100471.91;10458097;28;20070;-69
2022/10/02 10:31:02;;;;;;;3.65;1.13;;;;;;;16.58;77.38;100465.19;10487706;28;20511;-68
2022/10/02 10:42:35;;;;;;;4.47;1.25;;;;;;;16.61;77.16;100486.47;10467670;28;20033;-66
2022/10/02 10:48:24;;;;;;;2.80;1.05;;;;;;;16.68;77.03;100480.19;10421968;28;20041;-67
2022/10/02 10:53:45;;;;;;;3.33;1.13;;;;;;;16.77;76.62;100485.19;10465748;28;20046;-66
2022/10/02 10:59:18;;;;;;;2.67;0.98;;;;;;;16.75;76.52;100495.44;10463465;28;20041;-66
2022/10/02 11:04:40;;;;;;;3.55;0.90;;;;;;;16.63;76.90;100491.69;10464676;28;20041;-66
2022/10/02 11:09:54;;;;;;;1.10;0.60;;;;;;;16.65;77.00;100504.00;10469421;28;20045;-67
2022/10/02 11:15:01;;;;;;;4.30;0.90;;;;;;;16.75;76.81;100505.44;10451739;28;20041;-67
2022/10/02 11:20:21;;;;;;;;;;;;;;;16.77;77.14;100492.50;10448133;28;20055;-67
2022/10/02 11:26:04;;;;;;;4.05;0.90;;;;;;;16.82;76.78;100501.72;10468022;28;19948;-67
2022/10/02 11:31:31;;;;;;;2.65;0.80;;;;;;;16.80;76.52;100501.03;10465085;28;20045;-67
2022/10/02 11:36:41;;;;;;;1.70;0.70;;;;;;;16.96;76.23;100507.06;10464359;28;20057;-67
2022/10/02 11:42:04;;;;;;;4.72;2.72;;;;;;;16.83;76.22;100518.81;10469382;28;20037;-65
2022/10/02 11:47:30;;;;;;;2.03;0.70;;;;;;;16.72;76.57;100525.69;10455707;28;20045;-67
2022/10/02 11:52:55;;;;;;;1.35;0.68;;;;;;;16.73;76.29;100508.38;10454285;28;20083;-68
2022/10/02 11:58:18;;;;;;;2.17;0.68;;;;;;;16.82;76.27;100517.16;10473516;28;20048;-69
2022/10/02 12:03:35;;;;;;;3.10;0.90;;;;;;;16.96;76.17;100515.22;10455385;28;20044;-70
2022/10/02 12:08:59;;;;;;;0.60;0.50;;;;;;;16.87;76.25;100508.38;10471832;28;20037;-67
2022/10/02 12:14:19;;;;;;;1.80;0.40;;;;;;;16.94;76.18;100512.75;10471289;28;20037;-67
2022/10/02 12:19:38;;;;;;;1.13;0.70;;;;;;;16.98;75.89;100511.28;10450227;28;20052;-67
2022/10/02 12:30:42;;;;;;;;;;;;;;;17.14;76.50;100509.94;10471834;28;20162;-69
2022/10/02 12:35:44;;;;;;;2.08;1.25;;;;;;;17.40;75.43;100508.16;10453542;28;19925;-70
2022/10/02 12:40:45;;;;;;;0.82;0.43;;;;;;;17.47;75.58;100494.53;10460154;28;20079;-70
2022/10/02 12:45:49;;;;;;;1.75;0.40;;;;;;;17.35;75.67;100500.63;10481271;28;20032;-70
2022/10/02 12:51:27;;;;;;;0.85;0.35;;;;;;;17.31;75.42;100488.53;10495153;28;20072;-72
2022/10/02 12:56:41;;;;;;;2.10;0.57;;;;;;;17.34;75.46;100500.88;10487151;28;20028;-72
2022/10/02 13:02:16;;;;;;;1.30;0.50;;;;;;;17.25;75.38;100497.56;10499347;28;20056;-70
2022/10/02 13:07:32;;;;;;;3.13;0.50;;;;;;;17.43;74.95;100494.94;10490067;28;20163;-71
2022/10/02 13:12:39;;;;;;;1.10;0.40;;;;;;;17.48;75.16;100493.50;10490374;28;20041;-70
2022/10/02 13:17:57;;;;;;;1.33;0.38;;;;;;;17.67;74.44;100489.78;10484247;28;20044;-70
2022/10/02 13:23:06;;;;;;;0.98;0.45;;;;;;;17.77;74.38;100497.47;10476695;28;20099;-71
2022/10/02 13:28:26;;;;;;;1.80;0.60;;;;;;;17.71;74.47;100506.50;10482282;28;20047;-72
2022/10/02 13:33:39;;;;;;;1.77;0.60;;;;;;;17.71;74.18;100507.31;10492253;28;20044;-72
2022/10/02 13:38:59;;;;;;;2.05;0.50;;;;;;;17.60;74.66;100514.31;10495016;28;20025;-72
2022/10/02 13:44:11;;;;;;;0.77;0.50;;;;;;;17.52;74.69;100514.56;10466704;28;20048;-72
2022/10/02 13:49:52;;;;;;;2.17;0.60;;;;;;;17.63;74.63;100521.19;10471627;28;20044;-71
2022/10/02 13:55:36;;;;;;;3.10;0.40;;;;;;;17.73;74.23;100521.56;10469152;28;20041;-70
2022/10/02 14:00:44;;;;;;;1.05;0.40;;;;;;;17.88;74.00;100517.72;10347681;28;20054;-71
2022/10/02 14:05:59;;;;;;;1.42;0.40;;;;;;;17.95;73.57;100519.34;10449089;28;20048;-71
2022/10/02 14:11:42;;;;;;;2.67;0.40;;;;;;;18.02;73.63;100519.28;10479856;28;20052;-72
2022/10/02 14:17:30;;;;;;;1.33;0.30;;;;;;;17.95;73.63;100516.63;10416376;28;20040;-72
2022/10/02 14:23:02;;;;;;;2.47;0.47;;;;;;;17.91;73.54;100514.53;10478813;28;20090;-71
2022/10/02 14:28:11;;;;;;;1.85;0.30;;;;;;;17.65;74.28;100527.22;10444648;28;20049;-73
2022/10/02 14:33:42;;;;;;;0.77;0.52;;;;;;;17.60;74.53;100527.06;10470611;28;20049;-72
2022/10/02 14:38:51;;;;;;;2.22;0.30;;;;;;;17.73;74.24;100520.72;10461060;28;20048;-71
2022/10/02 14:44:19;;;;;;;0.85;0.40;;;;;;;17.70;74.22;100527.41;10478827;28;20078;-71
2022/10/02 14:49:42;;;;;;;0.82;0.50;;;;;;;17.80;74.12;100532.38;10429222;28;20060;-71
2022/10/02 14:55:17;;;;;;;2.80;0.70;;;;;;;17.81;74.07;100531.31;10446321;28;20049;-71
2022/10/02 15:00:20;;;;;;;0.90;0.40;;;;;;;17.74;73.90;100542.25;10426311;28;20061;-71
2022/10/02 15:05:49;;;;;;;2.08;0.60;;;;;;;17.66;74.19;100539.78;10445406;28;20094;-72
2022/10/02 15:10:51;;;;;;;1.00;0.50;;;;;;;17.54;74.38;100538.81;10436880;28;20052;-72
2022/10/02 15:21:39;;;;;;;2.65;0.73;;;;;;;17.54;74.09;100536.94;10444481;28;20056;-73
2022/10/02 15:27:14;;;;;;;2.03;0.90;;;;;;;17.55;74.25;100535.84;10443707;28;20041;-72
2022/10/02 15:32:18;;;;;;;3.70;1.70;;;;;;;17.50;74.23;100540.31;10441793;28;20064;-73
2022/10/02 15:37:42;;;;;;;3.03;0.80;;;;;;;17.32;74.40;100544.56;10442289;28;20149;-72
2022/10/02 15:42:52;;;;;;;5.03;1.30;;;;;;;17.25;74.90;100552.72;10442597;28;20082;-72
2022/10/02 15:48:13;;;;;;;2.30;0.70;;;;;;;17.26;74.61;100550.88;10442825;28;20072;-72
2022/10/02 15:53:35;;;;;;;1.30;0.60;;;;;;;17.31;74.26;100553.75;10441491;28;20487;-74
2022/10/02 15:59:08;;;;;;;8.32;1.85;;;;;;;17.28;74.37;100556.06;10442576;28;20093;-72
2022/10/02 16:04:36;;;;;;;2.72;1.38;;;;;;;17.20;74.52;100555.28;10439558;28;20081;-73
2022/10/02 16:09:46;;;;;;;5.63;1.27;;;;;;;17.14;74.31;100561.56;10418415;28;21145;-74
2022/10/02 16:15:10;;;;;;;5.95;2.58;;;;;;;17.04;74.24;100562.00;10442798;28;20080;-72
2022/10/02 16:20:25;;;;;;;6.78;1.50;;;;;;;17.00;74.16;100566.19;10421784;28;20095;-74
2022/10/02 16:26:05;;;;;;;5.55;2.05;;;;;;;16.98;74.26;100570.16;10437545;28;20131;-72
2022/10/02 16:31:30;;;;;;;4.47;1.80;;;;;;;17.04;73.62;100577.44;10413942;28;20110;-72
2022/10/02 16:36:40;;;;;;;4.03;2.10;;;;;;;17.13;73.37;100587.03;10414690;28;20052;-74
2022/10/02 16:42:00;;;;;;;3.42;1.65;;;;;;;17.02;73.26;100606.72;10440658;28;20063;-73
2022/10/02 16:47:16;;;;;;;3.45;1.85;;;;;;;17.04;72.77;100610.03;10440411;28;20091;-72
2022/10/02 16:52:28;;;;;;;3.05;1.83;;;;;;;17.03;73.01;100608.38;10442026;28;20048;-72
2022/10/02 16:57:38;;;;;;;3.42;1.75;;;;;;;16.92;73.33;100611.75;10425779;28;20076;-72
2022/10/02 17:02:50;;;;;;;4.90;2.15;;;;;;;16.82;73.51;100613.03;10442365;28;20596;-73
2022/10/02 17:08:00;;;;;;;6.38;2.17;;;;;;;16.70;73.58;100624.69;10425035;28;20055;-72
2022/10/02 17:13:08;;;;;;;7.75;2.65;;;;;;;16.66;73.71;100629.69;10443457;28;20105;-72
2022/10/02 17:18:22;;;;;;;4.10;2.28;;;;;;;16.54;73.76;100656.63;10442471;28;20128;-74
2022/10/02 17:23:32;;;;;;;6.90;2.65;;;;;;;16.50;73.48;100655.38;10443247;28;20045;-72
2022/10/02 17:28:52;;;;;;;7.22;2.10;;;;;;;16.36;73.57;100669.97;10450566;28;20084;-66
2022/10/02 17:33:56;;;;;;;2.65;2.08;;;;;;;16.19;73.91;100681.22;10448416;28;20176;-66
2022/10/02 17:39:02;;;;;;;5.70;2.40;;;;;;;16.16;73.44;100686.22;10447917;28;20040;-66
2022/10/02 17:44:22;;;;;;;7.57;2.55;;;;;;;16.06;73.42;100695.56;10446529;28;20099;-66
2022/10/02 17:49:57;;;;;;;11.75;4.25;;;;;;;15.96;73.56;100699.72;10445698;28;20122;-66
2022/10/02 18:01:04;;;;;;;7.72;2.85;;;;;;;15.63;73.56;100725.56;10447546;28;20065;-65
2022/10/02 18:06:18;;;;;;;13.23;6.93;;;;;;;15.37;74.49;100742.50;10443049;28;20068;-65
2022/10/02 18:11:41;;;;;;;11.85;5.50;;;;;;;15.30;74.36;100746.19;10442931;28;20123;-66
2022/10/02 18:16:51;;;;;;;16.55;10.93;;;;;;;15.24;74.21;100764.94;10447776;28;20100;-66
2022/10/02 18:22:04;;;;;;;11.40;5.78;;;;;;;15.18;74.31;100773.00;10446009;28;20085;-66
2022/10/02 18:27:45;;;;;;;10.88;6.05;;;;;;;15.06;74.68;100781.63;10446857;28;20153;-65
2022/10/02 18:33:24;;;;;;;10.70;6.10;;;;;;;15.09;74.66;100780.44;10445369;28;20683;-66
2022/10/02 18:38:40;;;;;;;9.70;5.72;;;;;;;15.14;74.31;100788.78;10445340;28;20041;-65
2022/10/02 18:43:56;;;;;;;12.57;6.80;;;;;;;15.09;74.02;100788.53;10426553;28;20172;-66
2022/10/02 18:49:09;;;;;;;14.73;6.20;;;;;;;15.02;74.01;100802.00;10445082;28;20094;-66
2022/10/02 18:54:35;;;;;;;11.30;6.55;;;;;;;14.95;74.10;100809.25;10446639;28;20067;-66
2022/10/02 19:00:06;;;;;;;13.18;6.65;;;;;;;14.90;74.31;100808.97;10445943;28;20438;-66
2022/10/02 19:05:35;;;;;;;14.70;6.80;;;;;;;14.87;74.22;100812.09;10444544;28;20045;-67
2022/10/02 19:10:41;;;;;;;11.32;6.88;;;;;;;14.91;74.40;100823.34;10442152;28;20064;-67
2022/10/02 19:15:45;;;;;;;11.68;5.90;;;;;;;14.94;74.47;100833.78;10446057;28;20065;-66
2022/10/02 19:21:12;;;;;;;10.35;5.65;;;;;;;15.02;74.53;100833.66;10444208;28;20106;-66
2022/10/02 19:26:26;;;;;;;12.43;6.70;;;;;;;15.07;74.30;100836.66;10439953;28;20083;-66
2022/10/02 19:31:30;;;;;;;13.80;6.28;;;;;;;15.09;74.27;100848.13;10445468;28;20132;-66
2022/10/02 19:36:40;;;;;;;12.15;7.90;;;;;;;15.05;74.26;100853.06;10445419;28;20041;-66
2022/10/02 19:41:43;;;;;;;11.43;6.45;;;;;;;15.04;74.38;100856.81;10444103;28;20069;-66
2022/10/02 19:46:51;;;;;;;14.88;6.53;;;;;;;14.98;74.63;100873.00;10439850;28;20518;-66
2022/10/02 19:51:53;;;;;;;14.65;6.30;;;;;;;14.97;74.74;100885.69;10426883;28;20135;-65
2022/10/02 19:57:06;;;;;;;12.52;6.28;;;;;;;15.02;74.83;100882.41;10438664;28;20110;-67
2022/10/02 20:02:20;;;;;;;6.05;3.78;;;;;;;15.08;74.82;100889.75;10441640;28;20061;-65
2022/10/02 20:07:25;;;;;;;11.93;3.38;;;;;;;15.25;74.88;100893.06;10422504;28;20106;-65
2022/10/02 20:12:34;;;;;;;7.00;3.20;;;;;;;15.46;74.46;100895.75;10443291;28;20068;-66
2022/10/02 20:17:36;;;;;;;6.82;2.95;;;;;;;15.61;73.92;100908.38;10412064;28;20045;-65
2022/10/02 20:22:51;;;;;;;7.53;2.85;;;;;;;15.70;73.36;100901.81;10435796;28;20072;-64
2022/10/02 20:27:59;;;;;;;11.60;2.75;;;;;;;15.72;72.97;100904.28;10443794;28;20053;-66
2022/10/02 20:33:10;;;;;;;9.70;3.88;;;;;;;15.72;73.16;100918.72;10442534;28;20338;-64
2022/10/02 20:38:37;;;;;;;10.15;4.10;;;;;;;15.76;72.65;100920.03;10425595;28;20443;-65
2022/10/02 20:43:45;;;;;;;;;;;;;;;15.74;73.54;100926.66;10442615;28;20045;-65
2022/10/02 20:49:14;;;;;;;6.75;3.00;;;;;;;15.61;72.85;100936.31;10441963;28;19956;-64
2022/10/02 20:54:27;;;;;;;8.70;3.92;;;;;;;15.54;72.80;100950.84;10441290;28;20131;-64
2022/10/02 21:00:06;;;;;;;6.85;3.60;;;;;;;15.56;72.87;100955.06;10445527;28;20124;-66
2022/10/02 21:05:33;;;;;;;12.18;4.47;;;;;;;15.52;72.47;100963.75;10427897;28;20045;-65
2022/10/02 21:10:53;;;;;;;13.18;5.43;;;;;;;15.41;72.52;100954.28;10450486;28;20563;-66
2022/10/02 21:16:16;;;;;;;12.70;5.03;;;;;;;15.34;72.47;100956.06;10447747;28;20126;-66
2022/10/02 21:21:36;;;;;;;12.27;4.93;;;;;;;15.21;72.36;100960.31;10449889;28;20037;-66
2022/10/02 21:27:02;;;;;;;11.32;6.05;;;;;;;15.09;72.40;100980.81;10449242;28;20037;-65
2022/10/02 21:32:27;;;;;;;15.80;6.75;;;;;;;14.94;72.35;100980.81;10431840;28;20129;-64
2022/10/02 21:37:49;;;;;;;16.50;6.15;;;;;;;14.77;72.78;100984.75;10448666;28;20076;-65
2022/10/02 21:43:03;;;;;;;13.70;5.85;;;;;;;14.74;72.73;100977.84;10447789;28;20076;-64
2022/10/02 21:48:39;;;;;;;12.82;6.30;;;;;;;14.67;73.05;100995.84;10448567;28;20119;-65
2022/10/02 21:54:18;;;;;;;14.00;5.85;;;;;;;14.52;73.54;100997.72;10448821;28;20072;-65
2022/10/02 21:59:40;;;;;;;15.18;6.32;;;;;;;14.48;73.55;101018.88;10447815;28;20047;-67
2022/10/02 22:04:54;;;;;;;14.68;7.90;;;;;;;14.46;73.51;101029.06;10444967;28;20072;-66
2022/10/02 22:10:11;;;;;;;13.30;6.07;;;;;;;14.42;73.69;101036.69;10446125;28;20084;-66
2022/10/02 22:15:20;;;;;;;;;;;;;;;14.35;74.46;101038.44;10449293;28;20120;-65
2022/10/02 22:20:50;;;;;;;11.05;5.47;;;;;;;14.34;73.91;101052.16;10446649;28;20012;-65
2022/10/02 22:26:11;;;;;;;8.85;5.90;;;;;;;14.28;73.80;101057.28;10447173;28;20079;-65
2022/10/02 22:31:42;;;;;;;17.33;7.30;;;;;;;14.16;73.98;101060.59;10446322;28;20087;-64
2022/10/02 22:37:02;;;;;;;21.70;10.95;;;;;;;14.09;73.80;101074.84;10447854;28;20068;-66
2022/10/02 22:42:11;;;;;;;16.02;6.93;;;;;;;13.96;73.84;101080.03;10446656;28;20068;-65
2022/10/02 22:47:25;;;;;;;18.80;7.60;;;;;;;13.84;74.14;101089.53;10447379;28;20730;-64
2022/10/02 22:52:30;;;;;;;15.02;6.63;;;;;;;13.71;74.25;101090.16;10441102;28;20064;-64
2022/10/02 22:57:36;;;;;;;21.50;6.65;;;;;;;13.50;75.11;101098.88;10447590;28;20061;-64
2022/10/02 23:03:00;;;;;;;11.68;6.35;;;;;;;13.50;74.53;101090.78;10444183;28;20135;-66
2022/10/02 23:08:45;;;;;;;12.63;3.45;;;;;;;13.44;74.77;101089.59;10445413;28;20049;-64
2022/10/02 23:13:55;;;;;;;15.90;5.95;;;;;;;13.43;74.67;101093.34;10427283;28;20132;-64
2022/10/02 23:19:07;;;;;;;14.45;4.90;;;;;;;13.52;74.85;101096.84;10445661;28;20120;-62
2022/10/02 23:24:35;;;;;;;14.20;5.18;;;;;;;13.48;75.11;101101.75;10446553;28;20115;-63
2022/10/02 23:29:45;;;;;;;10.95;4.70;;;;;;;13.65;74.56;101109.78;10404868;28;20132;-64
2022/10/02 23:34:59;;;;;;;15.82;5.45;;;;;;;13.72;74.37;101108.03;10442454;28;20040;-65
2022/10/02 23:40:04;;;;;;;11.48;2.97;;;;;;;13.76;74.37;101117.47;10445543;28;20065;-65
2022/10/02 23:45:20;;;;;;;10.02;2.47;;;;;;;13.86;73.98;101122.63;10443649;28;20207;-65
2022/10/02 23:50:38;;;;;;;7.70;2.40;;;;;;;14.02;73.92;101121.69;10426182;28;20132;-65
2022/10/02 23:55:54;;;;;;;9.75;2.90;;;;;;;14.14;73.73;101132.94;10423998;28;20124;-65
